Ferry Katsuragi — JI3611 — position and weather

sailwx.info

Track history (hours):
 
Tides and Currents Weather Stations Pressure Air Temp Water Temp Dewpoint Dewpoint Depression Visibility Wind Speed Wind Dir Waves Ship Positions

Ferry Katsuragi

Last reported at 2016-May-28 05:20 UTC. Time now 2016-May-28 11:54 UTC.
Position N 34°38' E 135°29'.

Length 108 m; draft 4 m.

Type: Passenger vessel. MMSI: 431301245.

Date/timePositionNaut miles runAvg speedWind from/ knotsBaromVisibWave heightAir tempDewpointWater temp
2016-May-28 05:20N 34°38' E 135°29'0 0.0
2016-May-28 04:26N 34°38' E 135°29'0 0.0
2016-May-26 20:20N 34°38' E 135°29'0 0.0
2016-May-26 18:32N 34°38' E 135°29'0 0.0
2016-May-26 16:20N 34°38' E 135°29'0 0.0
2016-May-26 15:20N 34°38' E 135°29'0 0.0
2016-May-26 14:20N 34°38' E 135°29'0 0.1
2016-May-26 13:32N 34°38' E 135°29'0 0.0
2016-May-26 03:32N 34°38' E 135°29'0 0.0
2016-May-25 23:14N 34°38' E 135°29'0 0.0
2016-May-25 04:20N 34°38' E 135°29'0 0.0
2016-May-24 21:07N 34°38' E 135°29'0 0.0
2016-May-24 20:31N 34°38' E 135°29'0 0.0
2016-May-24 19:31N 34°38' E 135°29'0 0.0
2016-May-24 18:31N 34°38' E 135°29'0 0.0
2016-May-24 17:31N 34°38' E 135°29'0 0.0
2016-May-24 16:31N 34°38' E 135°29'0 0.0
2016-May-24 15:19N 34°38' E 135°29'0 0.1
2016-May-24 14:31N 34°38' E 135°29'0 0.0
2016-May-24 13:31N 34°38' E 135°29'0 0.0
2016-May-23 23:14N 34°38' E 135°29'0 0.0
2016-May-23 22:33N 34°38' E 135°29'0 0.0
2016-May-23 21:33N 34°38' E 135°29'0 0.0
2016-May-23 20:33N 34°38' E 135°29'0 0.0
2016-May-23 19:33N 34°38' E 135°29'0 0.1
2016-May-23 18:33N 34°38' E 135°29'0 0.0
2016-May-23 17:33N 34°38' E 135°29'0 0.0
2016-May-23 16:33N 34°38' E 135°29'0 0.0
2016-May-23 15:33N 34°38' E 135°29'0 0.0
2016-May-23 14:33N 34°38' E 135°29'0 0.0
2016-May-23 13:33N 34°38' E 135°29'0 0.0
2016-May-23 12:33N 34°38' E 135°29'0 0.0
2016-May-23 11:33N 34°38' E 135°29'0 0.0
2016-May-23 10:33N 34°38' E 135°29'0 0.0
2016-May-23 09:33N 34°38' E 135°29'0 0.0
2016-May-23 08:33N 34°38' E 135°29'0 0.0
2016-May-23 07:33N 34°38' E 135°29'0 0.0
2016-May-23 06:33N 34°38' E 135°29'0 0.0
2016-May-23 05:33N 34°38' E 135°29'0 0.0
2016-May-23 04:22N 34°38' E 135°29'0 0.0
2016-May-23 03:24N 34°38' E 135°29'0 0.0
2016-May-23 01:05N 34°38' E 135°29'0 0.1
2016-May-23 00:33N 34°38' E 135°29'0 0.3
2016-May-22 23:33N 34°38' E 135°28'8 8.2
2016-May-22 22:33N 34°35' E 135°19'9 9.2
2016-May-22 21:33N 34°29' E 135°11'18 8.9
2016-May-22 19:33N 34°14' E 134°59'11 3.6
2016-May-22 16:33N 34°07' E 134°48'1717.2
2016-May-22 15:34N 34°13' E 135°08'5 4.9
2016-May-22 14:33N 34°12' E 135°02'1414.3
2016-May-22 13:33N 34°06' E 134°46'2 0.9
2016-May-22 11:33N 34°07' E 134°48'1515.2
2016-May-22 10:33N 34°12' E 135°05'3 3.1
2016-May-22 09:34N 34°13' E 135°09'20 5.8
2016-May-22 06:07N 34°06' E 134°46'814.4
2016-May-22 05:32N 34°08' E 134°56'1211.9
2016-May-22 04:33N 34°13' E 135°09'12 2.8
2016-May-22 00:19N 34°09' E 134°55'1215.4
2016-May-21 23:33N 34°13' E 135°08'2 2.1
2016-May-21 22:34N 34°13' E 135°06'17 4.9
2016-May-21 19:06N 34°07' E 134°47'913.6
2016-May-21 18:26N 34°10' E 134°57'1011.7
2016-May-21 17:33N 34°13' E 135°09'0 0.0
2016-May-21 16:33N 34°13' E 135°09'0 0.0
2016-May-21 15:33N 34°13' E 135°09'7 6.9
2016-May-21 14:33N 34°11' E 135°01'11 3.5
2016-May-21 11:28N 34°07' E 134°49'1314.9
2016-May-21 10:34N 34°12' E 135°04'4 4.2
2016-May-21 09:34N 34°13' E 135°09'21 6.2
2016-May-21 06:10N 34°05' E 134°45'1114.6
2016-May-21 05:26N 34°08' E 134°57'1112.0
2016-May-21 04:33N 34°13' E 135°09'7 6.6
2016-May-21 03:32N 34°11' E 135°01'6 1.6
2016-May-20 23:34N 34°13' E 135°08'2 1.7
2016-May-20 22:33N 34°13' E 135°06'18 5.5
2016-May-20 19:13N 34°06' E 134°45'1013.4
2016-May-20 18:28N 34°09' E 134°57'1111.7
2016-May-20 17:33N 34°13' E 135°09'0 0.0
2016-May-20 16:33N 34°13' E 135°09'0 0.0
2016-May-20 15:33N 34°13' E 135°09'5 5.0
2016-May-20 14:33N 34°12' E 135°03'12 4.0
2016-May-20 11:29N 34°08' E 134°49'1314.2
2016-May-20 10:33N 34°12' E 135°04'4 3.8
2016-May-20 09:34N 34°13' E 135°09'20 5.7
2016-May-20 06:08N 34°07' E 134°46'914.2
2016-May-20 05:29N 34°09' E 134°57'1111.4
2016-May-20 04:33N 34°13' E 135°09'6 5.7
2016-May-20 03:33N 34°12' E 135°02'5 1.3
2016-May-19 23:34N 34°13' E 135°08'2 2.0
2016-May-19 22:34N 34°13' E 135°06'19 5.6
2016-May-19 19:13N 34°05' E 134°45'1013.7
2016-May-19 18:29N 34°09' E 134°57'1111.6
2016-May-19 17:33N 34°13' E 135°09'0 0.0
2016-May-19 16:34N 34°13' E 135°09'0 0.0
2016-May-19 15:33N 34°13' E 135°09'6 6.0
2016-May-19 14:33N 34°12' E 135°01'12 3.8
2016-May-19 11:29N 34°07' E 134°48'1414.9
2016-May-19 10:34N 34°12' E 135°04'4 3.9
2016-May-19 09:33N 34°13' E 135°09'0 0.0
2016-May-19 04:34N 34°13' E 135°09'7 7.1
2016-May-19 03:33N 34°10' E 135°01'8 2.5
2016-May-19 00:30N 34°08' E 134°52'1414.9
2016-May-18 23:34N 34°13' E 135°08'2 1.5
2016-May-18 22:33N 34°13' E 135°06'18 5.1
2016-May-18 19:07N 34°06' E 134°46'813.8
2016-May-18 18:31N 34°09' E 134°56'1111.7
2016-May-18 17:33N 34°13' E 135°09'0 0.0
2016-May-18 16:33N 34°13' E 135°09'0 0.0
2016-May-18 15:33N 34°13' E 135°09'7 7.0
2016-May-18 14:33N 34°11' E 135°00'10 3.3
2016-May-18 11:27N 34°08' E 134°49'1314.7
2016-May-18 10:33N 34°12' E 135°04'4 4.0
2016-May-18 09:33N 34°13' E 135°08'20 6.1
2016-May-18 06:13N 34°06' E 134°45'1013.7
2016-May-18 05:30N 34°09' E 134°56'  
Track history (hours):
 
Tides and Currents Weather Stations Pressure Air Temp Water Temp Dewpoint Dewpoint Depression Visibility Wind Speed Wind Dir Waves Ship Positions

Ferry Katsuragi

Last reported at 2016-May-28 05:20 UTC. Time now 2016-May-28 11:54 UTC.
Position N 34°38' E 135°29'.

Length 108 m; draft 4 m.

Type: Passenger vessel. MMSI: 431301245.

Date/timePositionNaut miles runAvg speedWind from/ knotsBaromVisibWave heightAir tempDewpointWater temp
2016-May-28 05:20N 34°38' E 135°29'0 0.0
2016-May-28 04:26N 34°38' E 135°29'0 0.0
2016-May-26 20:20N 34°38' E 135°29'0 0.0
2016-May-26 18:32N 34°38' E 135°29'0 0.0
2016-May-26 16:20N 34°38' E 135°29'0 0.0
2016-May-26 15:20N 34°38' E 135°29'0 0.0
2016-May-26 14:20N 34°38' E 135°29'0 0.1
2016-May-26 13:32N 34°38' E 135°29'0 0.0
2016-May-26 03:32N 34°38' E 135°29'0 0.0
2016-May-25 23:14N 34°38' E 135°29'0 0.0
2016-May-25 04:20N 34°38' E 135°29'0 0.0
2016-May-24 21:07N 34°38' E 135°29'0 0.0
2016-May-24 20:31N 34°38' E 135°29'0 0.0
2016-May-24 19:31N 34°38' E 135°29'0 0.0
2016-May-24 18:31N 34°38' E 135°29'0 0.0
2016-May-24 17:31N 34°38' E 135°29'0 0.0
2016-May-24 16:31N 34°38' E 135°29'0 0.0
2016-May-24 15:19N 34°38' E 135°29'0 0.1
2016-May-24 14:31N 34°38' E 135°29'0 0.0
2016-May-24 13:31N 34°38' E 135°29'0 0.0
2016-May-23 23:14N 34°38' E 135°29'0 0.0
2016-May-23 22:33N 34°38' E 135°29'0 0.0
2016-May-23 21:33N 34°38' E 135°29'0 0.0
2016-May-23 20:33N 34°38' E 135°29'0 0.0
2016-May-23 19:33N 34°38' E 135°29'0 0.1
2016-May-23 18:33N 34°38' E 135°29'0 0.0
2016-May-23 17:33N 34°38' E 135°29'0 0.0
2016-May-23 16:33N 34°38' E 135°29'0 0.0
2016-May-23 15:33N 34°38' E 135°29'0 0.0
2016-May-23 14:33N 34°38' E 135°29'0 0.0
2016-May-23 13:33N 34°38' E 135°29'0 0.0
2016-May-23 12:33N 34°38' E 135°29'0 0.0
2016-May-23 11:33N 34°38' E 135°29'0 0.0
2016-May-23 10:33N 34°38' E 135°29'0 0.0
2016-May-23 09:33N 34°38' E 135°29'0 0.0
2016-May-23 08:33N 34°38' E 135°29'0 0.0
2016-May-23 07:33N 34°38' E 135°29'0 0.0
2016-May-23 06:33N 34°38' E 135°29'0 0.0
2016-May-23 05:33N 34°38' E 135°29'0 0.0
2016-May-23 04:22N 34°38' E 135°29'0 0.0
2016-May-23 03:24N 34°38' E 135°29'0 0.0
2016-May-23 01:05N 34°38' E 135°29'0 0.1
2016-May-23 00:33N 34°38' E 135°29'0 0.3
2016-May-22 23:33N 34°38' E 135°28'8 8.2
2016-May-22 22:33N 34°35' E 135°19'9 9.2
2016-May-22 21:33N 34°29' E 135°11'18 8.9
2016-May-22 19:33N 34°14' E 134°59'11 3.6
2016-May-22 16:33N 34°07' E 134°48'1717.2
2016-May-22 15:34N 34°13' E 135°08'5 4.9
2016-May-22 14:33N 34°12' E 135°02'1414.3
2016-May-22 13:33N 34°06' E 134°46'2 0.9
2016-May-22 11:33N 34°07' E 134°48'1515.2
2016-May-22 10:33N 34°12' E 135°05'3 3.1
2016-May-22 09:34N 34°13' E 135°09'20 5.8
2016-May-22 06:07N 34°06' E 134°46'814.4
2016-May-22 05:32N 34°08' E 134°56'1211.9
2016-May-22 04:33N 34°13' E 135°09'12 2.8
2016-May-22 00:19N 34°09' E 134°55'1215.4
2016-May-21 23:33N 34°13' E 135°08'2 2.1
2016-May-21 22:34N 34°13' E 135°06'17 4.9
2016-May-21 19:06N 34°07' E 134°47'913.6
2016-May-21 18:26N 34°10' E 134°57'1011.7
2016-May-21 17:33N 34°13' E 135°09'0 0.0
2016-May-21 16:33N 34°13' E 135°09'0 0.0
2016-May-21 15:33N 34°13' E 135°09'7 6.9
2016-May-21 14:33N 34°11' E 135°01'11 3.5
2016-May-21 11:28N 34°07' E 134°49'1314.9
2016-May-21 10:34N 34°12' E 135°04'4 4.2
2016-May-21 09:34N 34°13' E 135°09'21 6.2
2016-May-21 06:10N 34°05' E 134°45'1114.6
2016-May-21 05:26N 34°08' E 134°57'1112.0
2016-May-21 04:33N 34°13' E 135°09'7 6.6
2016-May-21 03:32N 34°11' E 135°01'6 1.6
2016-May-20 23:34N 34°13' E 135°08'2 1.7
2016-May-20 22:33N 34°13' E 135°06'18 5.5
2016-May-20 19:13N 34°06' E 134°45'1013.4
2016-May-20 18:28N 34°09' E 134°57'1111.7
2016-May-20 17:33N 34°13' E 135°09'0 0.0
2016-May-20 16:33N 34°13' E 135°09'0 0.0
2016-May-20 15:33N 34°13' E 135°09'5 5.0
2016-May-20 14:33N 34°12' E 135°03'12 4.0
2016-May-20 11:29N 34°08' E 134°49'1314.2
2016-May-20 10:33N 34°12' E 135°04'4 3.8
2016-May-20 09:34N 34°13' E 135°09'20 5.7
2016-May-20 06:08N 34°07' E 134°46'914.2
2016-May-20 05:29N 34°09' E 134°57'1111.4
2016-May-20 04:33N 34°13' E 135°09'6 5.7
2016-May-20 03:33N 34°12' E 135°02'5 1.3
2016-May-19 23:34N 34°13' E 135°08'2 2.0
2016-May-19 22:34N 34°13' E 135°06'19 5.6
2016-May-19 19:13N 34°05' E 134°45'1013.7
2016-May-19 18:29N 34°09' E 134°57'1111.6
2016-May-19 17:33N 34°13' E 135°09'0 0.0
2016-May-19 16:34N 34°13' E 135°09'0 0.0
2016-May-19 15:33N 34°13' E 135°09'6 6.0
2016-May-19 14:33N 34°12' E 135°01'12 3.8
2016-May-19 11:29N 34°07' E 134°48'1414.9
2016-May-19 10:34N 34°12' E 135°04'4 3.9
2016-May-19 09:33N 34°13' E 135°09'0 0.0
2016-May-19 04:34N 34°13' E 135°09'7 7.1
2016-May-19 03:33N 34°10' E 135°01'8 2.5
2016-May-19 00:30N 34°08' E 134°52'1414.9
2016-May-18 23:34N 34°13' E 135°08'2 1.5
2016-May-18 22:33N 34°13' E 135°06'18 5.1
2016-May-18 19:07N 34°06' E 134°46'813.8
2016-May-18 18:31N 34°09' E 134°56'1111.7
2016-May-18 17:33N 34°13' E 135°09'0 0.0
2016-May-18 16:33N 34°13' E 135°09'0 0.0
2016-May-18 15:33N 34°13' E 135°09'7 7.0
2016-May-18 14:33N 34°11' E 135°00'10 3.3
2016-May-18 11:27N 34°08' E 134°49'1314.7
2016-May-18 10:33N 34°12' E 135°04'4 4.0
2016-May-18 09:33N 34°13' E 135°08'20 6.1
2016-May-18 06:13N 34°06' E 134°45'1013.7
2016-May-18 05:30N 34°09' E 134°56'  

Dump ship's entire track history